createdAt,value
2018-08-23T00:00:39.836Z,23.13
2018-08-23T00:03:10.524Z,15.97
2018-08-23T00:05:39.838Z,18.13
2018-08-23T00:08:08.874Z,19.87
2018-08-23T00:10:36.925Z,17.13
2018-08-23T00:13:06.226Z,15.20
2018-08-23T00:15:35.730Z,17.47
2018-08-23T00:18:03.843Z,23.37
2018-08-23T00:20:38.688Z,23.40
2018-08-23T00:23:06.756Z,27.90
2018-08-23T00:25:34.873Z,21.77
2018-08-23T00:28:04.665Z,30.33
2018-08-23T00:30:32.851Z,19.90
2018-08-23T00:33:00.987Z,21.50
2018-08-23T00:35:32.399Z,22.83
2018-08-23T00:38:01.125Z,28.33
2018-08-23T00:40:29.499Z,22.43
2018-08-23T00:42:57.537Z,21.73
2018-08-23T00:45:25.918Z,38.43
2018-08-23T00:47:53.992Z,23.80
2018-08-23T00:51:00.322Z,26.47
2018-08-23T00:53:28.438Z,21.33
2018-08-23T00:56:07.796Z,27.23
2018-08-23T00:58:35.860Z,23.93
2018-08-23T01:01:04.595Z,27.50
2018-08-23T01:03:35.545Z,20.23
2018-08-23T01:06:04.458Z,22.67
2018-08-23T01:08:32.561Z,21.90
2018-08-23T01:11:01.364Z,23.90
2018-08-23T01:13:29.458Z,27.00
2018-08-23T01:15:57.661Z,23.73
2018-08-23T01:18:25.891Z,24.47
2018-08-23T01:20:53.908Z,31.87
2018-08-23T01:23:23.887Z,24.87
2018-08-23T01:25:51.965Z,30.37
2018-08-23T01:28:20.110Z,38.53
2018-08-23T01:30:48.213Z,24.07
2018-08-23T01:33:16.323Z,25.80
2018-08-23T01:35:44.423Z,28.87
2018-08-23T01:38:12.651Z,24.00
2018-08-23T01:40:40.808Z,19.87
2018-08-23T01:43:08.879Z,25.33
2018-08-23T01:45:37.037Z,27.87
2018-08-23T01:48:06.182Z,22.47
2018-08-23T01:50:34.213Z,26.83
2018-08-23T01:53:02.244Z,41.77
2018-08-23T01:55:30.350Z,25.73
2018-08-23T01:57:58.475Z,26.37
2018-08-23T02:00:27.752Z,31.73
2018-08-23T02:02:55.916Z,24.30
2018-08-23T02:05:23.949Z,35.70
2018-08-23T02:07:52.033Z,27.77
2018-08-23T02:10:20.080Z,25.27
2018-08-23T02:12:48.216Z,22.83
2018-08-23T02:15:16.250Z,29.00
2018-08-23T02:17:44.466Z,26.60
2018-08-23T02:20:12.529Z,30.27
2018-08-23T02:22:40.579Z,22.60
2018-08-23T02:25:08.729Z,27.37
2018-08-23T02:28:02.211Z,30.80
2018-08-23T02:30:41.739Z,26.27
2018-08-23T02:33:09.953Z,28.23
2018-08-23T02:35:38.005Z,32.33
2018-08-23T02:38:06.176Z,36.53
2018-08-23T02:40:34.786Z,37.33
2018-08-23T02:43:03.038Z,33.07
2018-08-23T02:45:32.578Z,27.90
2018-08-23T02:48:00.701Z,33.60
2018-08-23T02:50:28.789Z,31.13
2018-08-23T02:52:56.862Z,51.30
2018-08-23T02:55:24.935Z,47.70
2018-08-23T02:57:59.125Z,48.83
2018-08-23T03:00:27.168Z,55.63
2018-08-23T03:02:55.362Z,56.47
2018-08-23T03:05:23.703Z,55.70
2018-08-23T03:07:51.736Z,52.33
2018-08-23T03:10:19.809Z,50.13
2018-08-23T03:12:47.786Z,28.17
2018-08-23T03:15:17.167Z,43.93
2018-08-23T03:17:45.182Z,25.37
2018-08-23T03:20:16.702Z,37.00
2018-08-23T03:22:45.104Z,33.83
2018-08-23T03:25:13.140Z,25.60
2018-08-23T03:27:41.206Z,28.80
2018-08-23T03:30:09.724Z,30.37
2018-08-23T03:32:37.871Z,31.70
2018-08-23T03:35:06.034Z,35.20
2018-08-23T03:37:34.105Z,39.93
2018-08-23T03:40:02.917Z,36.77
2018-08-23T03:42:31.210Z,35.50
2018-08-23T03:44:59.397Z,36.23
2018-08-23T03:47:31.353Z,43.57
2018-08-23T03:50:00.166Z,41.53
2018-08-23T03:52:28.363Z,33.07
2018-08-23T03:54:56.446Z,52.43
2018-08-23T03:57:24.651Z,55.00
2018-08-23T03:59:52.836Z,40.80
2018-08-23T04:02:20.862Z,31.00
2018-08-23T04:04:48.993Z,34.53
2018-08-23T04:07:17.687Z,27.33
2018-08-23T04:09:45.745Z,35.07
2018-08-23T04:12:13.799Z,27.90
2018-08-23T04:14:41.962Z,31.37
2018-08-23T04:17:10.006Z,37.37
2018-08-23T04:19:38.025Z,33.30
2018-08-23T04:22:06.125Z,38.90
2018-08-23T04:24:34.187Z,44.53
2018-08-23T04:27:02.297Z,46.70
2018-08-23T04:29:30.358Z,46.77
2018-08-23T04:31:58.385Z,32.73
2018-08-23T04:34:26.413Z,35.57
2018-08-23T04:36:54.461Z,32.10
2018-08-23T04:39:22.500Z,30.67
2018-08-23T04:41:50.540Z,31.30
2018-08-23T04:44:18.588Z,31.30
2018-08-23T04:46:46.660Z,34.50
2018-08-23T04:49:14.737Z,26.87
2018-08-23T04:51:42.849Z,35.00
2018-08-23T04:54:10.946Z,34.53
2018-08-23T04:56:39.009Z,35.40
2018-08-23T04:59:07.044Z,39.50
2018-08-23T05:01:35.177Z,35.13
2018-08-23T05:04:03.461Z,40.53
2018-08-23T05:06:31.457Z,48.30
2018-08-23T05:08:59.502Z,42.53
2018-08-23T05:11:27.929Z,37.43
2018-08-23T05:13:56.113Z,37.90
2018-08-23T05:16:24.150Z,38.07
2018-08-23T05:18:52.206Z,39.43
2018-08-23T05:21:22.394Z,37.50
2018-08-23T05:23:51.769Z,37.83
2018-08-23T05:26:19.853Z,37.70
2018-08-23T05:28:59.076Z,34.60
2018-08-23T05:31:27.367Z,39.43
2018-08-23T05:33:57.476Z,40.57
2018-08-23T05:36:26.021Z,41.97
2018-08-23T05:38:54.137Z,34.43
2018-08-23T05:41:22.210Z,35.47
2018-08-23T05:44:02.772Z,34.60
2018-08-23T05:46:36.974Z,32.53
2018-08-23T05:49:05.424Z,34.87
2018-08-23T05:51:33.603Z,33.57
2018-08-23T05:54:01.850Z,33.90
2018-08-23T05:56:29.970Z,42.13
2018-08-23T05:58:57.997Z,36.20
2018-08-23T06:01:26.033Z,42.13
2018-08-23T06:03:54.390Z,33.40
2018-08-23T06:06:22.375Z,51.20
2018-08-23T06:08:50.450Z,50.97
2018-08-23T06:11:18.500Z,56.90
2018-08-23T06:13:46.573Z,50.87
2018-08-23T06:16:14.622Z,51.33
2018-08-23T06:18:42.693Z,59.00
2018-08-23T06:21:10.805Z,46.37
2018-08-23T06:23:54.909Z,52.83
2018-08-23T06:26:29.568Z,37.03
2018-08-23T06:28:57.597Z,48.47
2018-08-23T06:31:25.644Z,56.43
2018-08-23T06:33:55.524Z,47.87
2018-08-23T06:36:23.849Z,60.40
2018-08-23T06:38:52.146Z,63.37
2018-08-23T06:41:20.274Z,53.60
2018-08-23T06:43:48.330Z,50.33
2018-08-23T06:46:16.493Z,43.50
2018-08-23T06:48:44.926Z,44.93
2018-08-23T06:51:13.023Z,50.23
2018-08-23T06:53:46.406Z,53.67
2018-08-23T06:56:14.735Z,38.67
2018-08-23T06:58:42.804Z,58.53
2018-08-23T07:01:20.795Z,62.33
2018-08-23T07:03:49.297Z,53.53
2018-08-23T07:06:18.173Z,51.30
2018-08-23T07:08:46.849Z,55.53
2018-08-23T07:11:19.578Z,50.77
2018-08-23T07:13:49.730Z,49.73
2018-08-23T07:16:18.204Z,53.47
2018-08-23T07:18:46.273Z,37.47
2018-08-23T07:21:15.171Z,57.53
2018-08-23T07:23:44.834Z,49.63
2018-08-23T07:26:12.938Z,56.10
2018-08-23T07:28:40.926Z,51.13
2018-08-23T07:31:08.956Z,58.23
2018-08-23T07:33:37.078Z,53.47
2018-08-23T07:36:16.350Z,57.70
2018-08-23T07:38:47.296Z,51.90
2018-08-23T07:41:15.467Z,56.13
2018-08-23T07:43:43.603Z,48.30
2018-08-23T07:46:11.669Z,48.37
2018-08-23T07:48:40.722Z,57.37
2018-08-23T07:51:09.470Z,67.10
2018-08-23T07:53:37.567Z,63.13
2018-08-23T07:56:19.775Z,60.93
2018-08-23T07:58:48.082Z,54.33
2018-08-23T08:01:16.386Z,59.07
2018-08-23T08:10:40.708Z,58.40
2018-08-23T08:13:19.153Z,51.60
2018-08-23T08:15:47.286Z,56.87
2018-08-23T08:18:15.393Z,49.43
2018-08-23T08:20:43.565Z,49.50
2018-08-23T08:23:11.564Z,47.50
2018-08-23T08:25:40.195Z,56.17
2018-08-23T08:28:14.607Z,45.13
2018-08-23T08:30:43.561Z,48.37
2018-08-23T08:33:12.093Z,39.80
2018-08-23T08:35:42.420Z,37.13
2018-08-23T08:38:10.502Z,34.33
2018-08-23T08:40:38.759Z,38.17
2018-08-23T08:43:07.336Z,31.57
2018-08-23T08:45:35.635Z,33.97
2018-08-23T08:48:10.490Z,35.43
2018-08-23T08:50:38.851Z,29.73
2018-08-23T08:53:07.067Z,27.10
2018-08-23T08:55:35.404Z,32.33
2018-08-23T08:58:04.403Z,27.40
2018-08-23T09:00:37.634Z,24.77
2018-08-23T09:03:05.704Z,27.70
2018-08-23T09:05:33.937Z,27.47
2018-08-23T09:08:02.094Z,22.40
2018-08-23T09:10:30.130Z,26.30
2018-08-23T09:12:58.225Z,21.63
2018-08-23T09:15:26.263Z,22.30
2018-08-23T09:17:58.399Z,19.60
2018-08-23T09:20:26.476Z,21.03
2018-08-23T09:22:54.510Z,17.63
2018-08-23T09:25:24.779Z,19.50
2018-08-23T09:27:53.061Z,19.03
2018-08-23T09:30:22.684Z,16.70
2018-08-23T09:32:50.741Z,16.77
2018-08-23T09:35:18.825Z,22.87
2018-08-23T09:37:46.952Z,22.23
2018-08-23T09:40:15.024Z,16.50
2018-08-23T09:42:43.092Z,15.23
2018-08-23T09:45:12.795Z,17.23
2018-08-23T09:47:40.867Z,16.10
2018-08-23T09:50:09.059Z,20.57
2018-08-23T09:52:39.902Z,17.37
2018-08-23T09:55:08.306Z,15.27
2018-08-23T09:57:36.807Z,15.07
2018-08-23T10:00:10.428Z,15.40
2018-08-23T10:02:39.099Z,17.10
2018-08-23T10:05:07.932Z,12.73
2018-08-23T10:07:35.940Z,13.60
2018-08-23T10:10:04.143Z,15.37
2018-08-23T10:12:32.948Z,13.37
2018-08-23T10:15:01.348Z,14.43
2018-08-23T10:17:29.532Z,14.20
2018-08-23T10:19:57.605Z,16.57
2018-08-23T10:22:25.654Z,15.10
2018-08-23T10:24:53.834Z,14.17
2018-08-23T10:27:21.894Z,15.40
2018-08-23T10:29:50.506Z,13.10
2018-08-23T10:32:26.621Z,19.60
2018-08-23T10:37:46.883Z,15.80
2018-08-23T10:40:15.217Z,17.80
2018-08-23T10:42:44.651Z,16.70
2018-08-23T10:45:12.825Z,17.10
2018-08-23T10:47:40.937Z,18.73
2018-08-23T10:50:08.977Z,20.83
2018-08-23T10:52:37.040Z,17.83
2018-08-23T10:55:05.261Z,37.50
2018-08-23T10:57:33.465Z,30.43
2018-08-23T11:00:01.669Z,29.73
2018-08-23T11:02:29.724Z,31.93
2018-08-23T11:05:00.004Z,24.87
2018-08-23T11:07:28.213Z,27.30
2018-08-23T11:09:56.234Z,31.13
2018-08-23T11:12:24.274Z,28.03
2018-08-23T11:14:52.325Z,24.67
2018-08-23T11:17:20.712Z,20.63
2018-08-23T11:19:48.783Z,19.63
2018-08-23T11:22:17.923Z,19.13
2018-08-23T11:24:45.971Z,25.27
2018-08-23T11:27:14.054Z,24.13
2018-08-23T11:29:43.957Z,23.63
2018-08-23T11:32:12.038Z,22.37
2018-08-23T11:34:40.248Z,24.50
2018-08-23T11:37:08.457Z,32.50
2018-08-23T11:39:36.590Z,27.67
2018-08-23T11:42:04.920Z,36.03
2018-08-23T11:44:33.095Z,28.47
2018-08-23T11:47:01.356Z,24.03
2018-08-23T11:49:29.518Z,33.27
2018-08-23T11:51:57.626Z,21.80
2018-08-23T11:54:25.758Z,24.60
2018-08-23T11:56:53.902Z,25.67
2018-08-23T11:59:22.013Z,19.30
2018-08-23T12:01:50.214Z,23.07
2018-08-23T12:04:18.794Z,19.10
2018-08-23T12:06:47.284Z,17.93
2018-08-23T12:09:15.367Z,23.77
2018-08-23T12:11:47.988Z,18.23
2018-08-23T12:14:16.831Z,22.57
2018-08-23T12:16:45.171Z,22.10
2018-08-23T12:19:14.300Z,20.27
2018-08-23T12:21:42.809Z,21.23
2018-08-23T12:24:11.003Z,25.40
2018-08-23T12:26:39.176Z,22.23
2018-08-23T12:29:07.703Z,21.77
2018-08-23T12:31:36.034Z,28.37
2018-08-23T12:34:04.101Z,28.70
2018-08-23T12:36:32.447Z,27.40
2018-08-23T12:39:00.605Z,25.33
2018-08-23T12:41:28.786Z,22.10
2018-08-23T12:43:58.277Z,23.13
2018-08-23T12:46:26.587Z,24.30
2018-08-23T12:48:54.660Z,19.77
2018-08-23T12:51:22.838Z,21.83
2018-08-23T12:53:51.034Z,21.63
2018-08-23T12:56:19.196Z,18.67
2018-08-23T12:58:47.369Z,15.97
2018-08-23T13:01:15.414Z,12.53
2018-08-23T13:03:43.479Z,17.00
2018-08-23T13:08:49.510Z,19.10
2018-08-23T13:11:17.689Z,12.87
2018-08-23T13:13:45.708Z,13.07
2018-08-23T13:16:13.768Z,14.87
2018-08-23T13:18:41.891Z,13.43
2018-08-23T13:21:10.288Z,17.60
2018-08-23T13:23:39.066Z,13.27
2018-08-23T13:26:07.246Z,14.90
2018-08-23T13:28:35.543Z,12.60
2018-08-23T13:31:03.773Z,14.70
2018-08-23T13:33:32.090Z,16.43
2018-08-23T13:36:00.147Z,14.27
2018-08-23T13:38:28.253Z,16.53
2018-08-23T13:40:56.281Z,18.63
2018-08-23T13:43:25.145Z,17.27
2018-08-23T13:45:53.366Z,16.77
2018-08-23T13:48:21.541Z,18.90
2018-08-23T13:50:49.611Z,20.60
2018-08-23T13:53:17.683Z,15.53
2018-08-23T13:55:45.752Z,14.37
2018-08-23T13:58:13.902Z,14.20
2018-08-23T14:00:42.476Z,12.37
2018-08-23T14:03:10.530Z,14.07
2018-08-23T14:05:38.648Z,13.47
2018-08-23T14:08:07.537Z,12.77
2018-08-23T14:10:35.597Z,12.43
2018-08-23T14:13:03.665Z,14.10
2018-08-23T14:15:33.743Z,18.73
2018-08-23T14:18:01.769Z,16.47
2018-08-23T14:20:29.898Z,15.77
2018-08-23T14:22:57.999Z,17.13
2018-08-23T14:25:26.216Z,14.03
2018-08-23T14:27:54.259Z,16.57
2018-08-23T14:30:22.369Z,15.80
2018-08-23T14:32:50.520Z,14.93
2018-08-23T14:35:18.820Z,18.33
2018-08-23T14:37:47.111Z,18.90
2018-08-23T14:40:16.147Z,18.77
2018-08-23T14:42:44.554Z,21.70
2018-08-23T14:45:13.230Z,19.40
2018-08-23T14:47:41.356Z,18.97
2018-08-23T14:50:09.416Z,17.47
2018-08-23T14:52:37.798Z,15.27
2018-08-23T14:55:05.972Z,13.17
2018-08-23T14:57:34.005Z,17.67
2018-08-23T15:00:02.194Z,17.43
2018-08-23T15:02:30.879Z,14.47
2018-08-23T15:04:58.919Z,12.90
2018-08-23T15:07:27.862Z,20.43
2018-08-23T15:09:56.011Z,15.77
2018-08-23T15:12:24.127Z,14.80
2018-08-23T15:14:52.362Z,14.70
2018-08-23T15:17:20.446Z,16.77
2018-08-23T15:19:48.737Z,14.53
2018-08-23T15:22:16.917Z,12.33
2018-08-23T15:24:45.275Z,19.40
2018-08-23T15:27:13.503Z,12.13
2018-08-23T15:29:41.384Z,12.77
2018-08-23T15:32:09.427Z,13.47
2018-08-23T15:34:37.521Z,14.07
2018-08-23T15:37:05.657Z,15.20
2018-08-23T15:39:33.765Z,10.00
2018-08-23T15:42:02.484Z,10.23
2018-08-23T15:44:30.752Z,10.73
2018-08-23T15:46:58.915Z,10.27
2018-08-23T15:49:27.014Z,8.17
2018-08-23T15:51:55.205Z,8.60
2018-08-23T15:57:07.591Z,6.70
2018-08-23T15:59:35.737Z,10.83
2018-08-23T16:02:03.961Z,7.97
2018-08-23T16:04:32.302Z,8.43
2018-08-23T16:07:00.361Z,11.57
2018-08-23T16:09:29.264Z,9.80
2018-08-23T16:11:57.383Z,11.00
2018-08-23T16:14:25.552Z,10.90
2018-08-23T16:16:53.676Z,12.10
2018-08-23T16:19:21.824Z,8.23
2018-08-23T16:21:51.403Z,8.67
2018-08-23T16:24:19.786Z,10.83
2018-08-23T16:26:48.081Z,7.60
2018-08-23T16:29:16.121Z,11.40
2018-08-23T16:31:44.496Z,11.20
2018-08-23T16:34:12.679Z,7.67
2018-08-23T16:36:41.302Z,11.07
2018-08-23T16:41:56.602Z,7.53
2018-08-23T16:44:24.716Z,6.97
2018-08-23T16:46:53.034Z,6.60
2018-08-23T16:49:22.892Z,8.50
2018-08-23T16:51:50.974Z,9.07
2018-08-23T16:54:19.129Z,5.13
2018-08-23T16:56:47.236Z,6.50
2018-08-23T17:02:01.811Z,7.00
2018-08-23T17:04:30.081Z,5.67
2018-08-23T17:06:58.204Z,10.40
2018-08-23T17:09:26.336Z,7.87
2018-08-23T17:11:54.480Z,8.30
2018-08-23T17:14:22.845Z,6.37
2018-08-23T17:16:50.998Z,5.57
2018-08-23T17:19:19.090Z,5.70
2018-08-23T17:21:47.247Z,4.83
2018-08-23T17:24:15.489Z,3.90
2018-08-23T17:26:43.589Z,5.20
2018-08-23T17:29:11.677Z,7.17
2018-08-23T17:31:39.908Z,5.07
2018-08-23T17:34:08.062Z,5.60
2018-08-23T17:36:36.153Z,3.40
2018-08-23T17:39:05.953Z,5.07
2018-08-23T17:41:34.131Z,4.20
2018-08-23T17:44:04.061Z,5.47
2018-08-23T17:46:32.311Z,5.13
2018-08-23T17:49:01.734Z,3.77
2018-08-23T17:51:29.810Z,4.43
2018-08-23T17:53:57.864Z,5.30
2018-08-23T17:56:25.955Z,5.53
2018-08-23T17:58:54.109Z,3.77
2018-08-23T18:01:22.290Z,5.23
2018-08-23T18:03:50.393Z,6.10
2018-08-23T18:06:18.501Z,6.03
2018-08-23T18:08:46.611Z,5.67
2018-08-23T18:11:15.027Z,4.13
2018-08-23T18:13:43.115Z,5.77
2018-08-23T18:16:11.201Z,3.33
2018-08-23T18:18:39.281Z,6.23
2018-08-23T18:21:07.404Z,5.50
2018-08-23T18:23:35.489Z,5.00
2018-08-23T18:26:03.713Z,9.60
2018-08-23T18:28:32.032Z,7.47
2018-08-23T18:31:00.101Z,5.00
2018-08-23T18:33:28.286Z,4.00
2018-08-23T18:35:56.259Z,6.63
2018-08-23T18:38:24.426Z,4.23
2018-08-23T18:40:52.505Z,6.17
2018-08-23T18:43:20.673Z,6.63
2018-08-23T18:45:48.787Z,3.77
2018-08-23T18:48:17.593Z,5.03
2018-08-23T18:50:45.701Z,4.67
2018-08-23T18:53:13.850Z,15.33
2018-08-23T18:55:41.970Z,58.87
2018-08-23T18:58:10.034Z,25.00
2018-08-23T19:00:38.195Z,19.80
2018-08-23T19:03:06.417Z,6.17
2018-08-23T19:05:39.995Z,6.03
2018-08-23T19:08:08.096Z,6.17
2018-08-23T19:10:36.198Z,5.57
2018-08-23T19:13:04.687Z,6.63
2018-08-23T19:15:33.395Z,3.37
2018-08-23T19:18:01.473Z,6.23
2018-08-23T19:20:29.573Z,5.60
2018-08-23T19:22:57.649Z,6.80
2018-08-23T19:25:25.783Z,6.40
2018-08-23T19:27:53.881Z,3.30
2018-08-23T19:30:21.986Z,5.77
2018-08-23T19:32:50.097Z,5.17
2018-08-23T19:35:18.171Z,4.87
2018-08-23T19:37:46.266Z,3.37
2018-08-23T19:40:16.034Z,2.80
2018-08-23T19:42:44.140Z,5.90
2018-08-23T19:45:12.348Z,3.73
2018-08-23T19:47:40.525Z,3.73
2018-08-23T19:50:08.731Z,3.93
2018-08-23T19:52:37.070Z,6.13
2018-08-23T19:55:06.537Z,3.00
2018-08-23T19:57:34.710Z,3.00
2018-08-23T20:00:02.966Z,3.60
2018-08-23T20:02:31.088Z,3.73
2018-08-23T20:04:59.165Z,3.13
2018-08-23T20:07:27.270Z,3.40
2018-08-23T20:09:55.936Z,4.10
2018-08-23T20:12:24.005Z,3.47
2018-08-23T20:14:52.123Z,4.47
2018-08-23T20:17:20.327Z,3.43
2018-08-23T20:19:48.445Z,3.90
2018-08-23T20:22:16.476Z,4.57
2018-08-23T20:24:44.559Z,6.27
2018-08-23T20:27:12.748Z,3.93
2018-08-23T20:29:41.034Z,2.73
2018-08-23T20:32:09.118Z,2.67
2018-08-23T20:34:37.353Z,3.33
2018-08-23T20:37:05.520Z,5.40
2018-08-23T20:39:35.632Z,3.03
2018-08-23T20:42:03.869Z,3.07
2018-08-23T20:44:33.821Z,3.37
2018-08-23T20:47:02.117Z,2.93
2018-08-23T20:49:30.240Z,3.73
2018-08-23T20:51:58.332Z,2.27
2018-08-23T20:54:26.480Z,4.33
2018-08-23T20:56:54.558Z,5.63
2018-08-23T20:59:22.630Z,3.57
2018-08-23T21:01:50.710Z,3.13
2018-08-23T21:04:20.937Z,4.23
2018-08-23T21:06:48.925Z,4.83
2018-08-23T21:09:17.008Z,6.07
2018-08-23T21:11:45.077Z,3.30
2018-08-23T21:14:13.749Z,4.17
2018-08-23T21:16:41.857Z,2.93
2018-08-23T21:19:09.913Z,5.07
2018-08-23T21:21:38.307Z,3.57
2018-08-23T21:24:06.356Z,2.80
2018-08-23T21:26:34.523Z,2.97
2018-08-23T21:29:02.573Z,2.80
2018-08-23T21:31:30.659Z,3.50
2018-08-23T21:33:58.689Z,2.70
2018-08-23T21:36:28.065Z,2.27
2018-08-23T21:38:56.129Z,3.27
2018-08-23T21:41:24.167Z,2.30
2018-08-23T21:43:52.252Z,3.40
2018-08-23T21:46:20.329Z,2.00
2018-08-23T21:48:50.954Z,6.23
2018-08-23T21:51:19.057Z,2.57
2018-08-23T21:53:47.395Z,3.03
2018-08-23T21:56:15.455Z,3.17
2018-08-23T21:58:44.190Z,3.67
2018-08-23T22:01:12.370Z,4.67
2018-08-23T22:03:40.405Z,3.87
2018-08-23T22:06:08.528Z,2.00
2018-08-23T22:08:36.753Z,7.27
2018-08-23T22:11:08.141Z,3.47
2018-08-23T22:13:37.243Z,1.87
2018-08-23T22:16:05.472Z,3.13
2018-08-23T22:18:33.629Z,7.63
2018-08-23T22:21:01.660Z,1.97
2018-08-23T22:23:29.717Z,4.63
2018-08-23T22:25:58.715Z,2.00
2018-08-23T22:28:26.947Z,3.60
2018-08-23T22:30:57.689Z,7.20
2018-08-23T22:33:25.931Z,2.20
2018-08-23T22:35:54.114Z,2.73
2018-08-23T22:38:22.203Z,3.87
2018-08-23T22:40:50.284Z,3.27
2018-08-23T22:43:18.996Z,4.20
2018-08-23T22:45:47.058Z,2.17
2018-08-23T22:48:22.196Z,3.17
2018-08-23T22:50:50.728Z,2.00
2018-08-23T22:53:18.943Z,2.23
2018-08-23T22:55:47.233Z,1.90
2018-08-23T22:58:16.054Z,3.07
2018-08-23T23:00:44.258Z,4.03
2018-08-23T23:03:12.290Z,3.90
2018-08-23T23:05:40.405Z,4.50
2018-08-23T23:08:08.761Z,3.57
2018-08-23T23:10:37.231Z,2.73
2018-08-23T23:13:08.747Z,2.00
2018-08-23T23:15:37.150Z,1.80
2018-08-23T23:18:05.312Z,2.60
2018-08-23T23:20:33.537Z,2.77
2018-08-23T23:23:01.673Z,5.20
2018-08-23T23:25:29.886Z,1.87
2018-08-23T23:27:57.900Z,1.43
2018-08-23T23:30:25.937Z,1.57
2018-08-23T23:32:53.948Z,2.73
2018-08-23T23:35:21.991Z,1.53
2018-08-23T23:37:50.109Z,3.87
2018-08-23T23:40:18.287Z,3.77
2018-08-23T23:42:46.398Z,4.50
2018-08-23T23:45:14.801Z,4.63
2018-08-23T23:47:42.851Z,3.00
2018-08-23T23:50:10.888Z,2.17
2018-08-23T23:52:38.962Z,4.53
2018-08-23T23:55:07.040Z,1.47
2018-08-23T23:57:35.109Z,1.27
